Time;durP1;ratioP1;P1;durP2;ratioP2;P2;SDS_P1;SDS_P2;PMS_P1;PMS_P2;Temp;Humidity;BMP_temperature;BMP_pressure;BME280_temperature;BME280_humidity;BME280_pressure;Samples;Min_cycle;Max_cycle;Signal;HPM_P1;HPM_P2
2022/09/14 00:01:07;;;;;;;6.90;6.30;;;;;;;;;;5041307;28;25206;-49
2022/09/14 00:03:32;;;;;;;6.40;5.90;;;;;;;;;;5033632;28;24435;-48
2022/09/14 00:06:02;;;;;;;6.40;5.90;;;;;;;;;;5041759;28;24451;-48
2022/09/14 00:08:27;;;;;;;6.55;6.00;;;;;;;;;;5032206;28;24598;-48
2022/09/14 00:10:52;;;;;;;6.78;6.28;;;;;;;;;;5042962;28;24578;-48
2022/09/14 00:13:17;;;;;;;6.30;5.80;;;;;;;;;;5031923;28;24980;-49
2022/09/14 00:15:45;;;;;;;6.30;5.80;;;;;;;;;;5044026;28;24493;-47
2022/09/14 00:18:10;;;;;;;6.68;6.18;;;;;;;;;;5044533;28;24411;-47
2022/09/14 00:20:36;;;;;;;6.83;6.33;;;;;;;;;;5044412;28;24439;-47
2022/09/14 00:23:01;;;;;;;6.20;5.70;;;;;;;;;;5037702;28;24453;-47
2022/09/14 00:25:27;;;;;;;6.10;5.60;;;;;;;;;;5043781;28;24438;-47
2022/09/14 00:27:52;;;;;;;6.50;6.00;;;;;;;;;;5044747;28;24454;-47
2022/09/14 00:30:18;;;;;;;6.50;5.90;;;;;;;;;;5030781;28;24480;-47
2022/09/14 00:32:43;;;;;;;6.80;6.30;;;;;;;;;;5045120;28;24431;-47
2022/09/14 00:35:08;;;;;;;6.50;6.00;;;;;;;;;;5046492;28;24758;-48
2022/09/14 00:37:34;;;;;;;6.60;6.10;;;;;;;;;;5039542;28;24431;-48
2022/09/14 00:39:59;;;;;;;6.95;6.40;;;;;;;;;;5037039;28;24836;-47
2022/09/14 00:42:24;;;;;;;7.03;6.33;;;;;;;;;;5036366;28;25126;-47
2022/09/14 00:44:49;;;;;;;6.90;6.40;;;;;;;;;;5043021;28;24415;-48
2022/09/14 00:47:15;;;;;;;6.32;5.82;;;;;;;;;;5050005;28;24391;-47
2022/09/14 00:49:41;;;;;;;6.40;5.90;;;;;;;;;;5048772;28;24407;-48
2022/09/14 00:52:09;;;;;;;6.10;5.60;;;;;;;;;;5037030;28;24454;-48
2022/09/14 00:54:42;;;;;;;6.30;5.70;;;;;;;;;;5029057;28;24420;-47
2022/09/14 00:57:07;;;;;;;6.18;5.68;;;;;;;;;;5047996;28;24442;-48
2022/09/14 00:59:35;;;;;;;5.93;5.43;;;;;;;;;;5045828;28;24419;-47
2022/09/14 01:02:00;;;;;;;6.78;6.18;;;;;;;;;;5046498;28;24485;-47
2022/09/14 01:04:25;;;;;;;6.17;5.63;;;;;;;;;;5036683;28;24439;-48
2022/09/14 01:06:55;;;;;;;6.50;6.00;;;;;;;;;;5042237;28;24423;-48
2022/09/14 01:09:32;;;;;;;6.13;5.63;;;;;;;;;;5044779;28;24426;-47
2022/09/14 01:11:57;;;;;;;6.30;5.70;;;;;;;;;;5046638;28;24428;-48
2022/09/14 01:14:40;;;;;;;6.20;5.70;;;;;;;;;;5036164;28;24422;-48
2022/09/14 01:17:15;;;;;;;6.40;5.90;;;;;;;;;;5049025;28;24411;-48
2022/09/14 01:19:56;;;;;;;6.00;5.50;;;;;;;;;;5047960;28;24520;-47
2022/09/14 01:22:31;;;;;;;6.00;5.60;;;;;;;;;;5046663;28;24431;-48
2022/09/14 01:25:05;;;;;;;6.07;5.68;;;;;;;;;;5040371;28;24415;-47
2022/09/14 01:27:30;;;;;;;6.25;5.85;;;;;;;;;;5047642;28;24977;-48
2022/09/14 01:30:04;;;;;;;6.70;6.20;;;;;;;;;;5043185;28;25027;-47
2022/09/14 01:32:33;;;;;;;6.18;5.68;;;;;;;;;;5046924;28;25040;-47
2022/09/14 01:35:02;;;;;;;5.88;5.40;;;;;;;;;;5039257;28;25132;-47
2022/09/14 01:37:31;;;;;;;6.18;5.68;;;;;;;;;;5034485;28;24808;-47
2022/09/14 01:40:11;;;;;;;5.75;5.35;;;;;;;;;;5042742;28;24480;-47
2022/09/14 01:42:37;;;;;;;6.20;5.80;;;;;;;;;;5044014;28;24423;-47
2022/09/14 01:45:05;;;;;;;5.90;5.50;;;;;;;;;;5029808;28;24439;-47
2022/09/14 01:47:35;;;;;;;6.05;5.55;;;;;;;;;;5036182;28;24441;-47
2022/09/14 01:50:06;;;;;;;5.97;5.47;;;;;;;;;;5034504;28;24506;-48
2022/09/14 01:52:41;;;;;;;6.63;6.03;;;;;;;;;;5027752;28;24415;-47
2022/09/14 01:55:08;;;;;;;6.10;5.60;;;;;;;;;;5039046;28;25000;-47
2022/09/14 01:57:39;;;;;;;5.68;5.28;;;;;;;;;;5033218;28;24443;-48
2022/09/14 02:00:07;;;;;;;6.17;5.67;;;;;;;;;;5041236;28;24471;-47
2022/09/14 02:02:35;;;;;;;6.10;5.70;;;;;;;;;;5043522;28;24706;-48
2022/09/14 02:05:00;;;;;;;6.95;6.40;;;;;;;;;;5039812;28;24861;-47
2022/09/14 02:07:25;;;;;;;6.30;5.80;;;;;;;;;;5031780;28;24439;-48
2022/09/14 02:09:52;;;;;;;6.03;5.53;;;;;;;;;;5046467;28;25007;-47
2022/09/14 02:12:17;;;;;;;6.90;6.22;;;;;;;;;;5045627;28;24419;-48
2022/09/14 02:14:44;;;;;;;6.13;5.63;;;;;;;;;;5045075;28;24429;-46
2022/09/14 02:17:11;;;;;;;6.43;5.82;;;;;;;;;;5037460;28;24601;-48
2022/09/14 02:19:40;;;;;;;6.65;6.15;;;;;;;;;;5047303;28;24462;-49
2022/09/14 02:22:05;;;;;;;6.30;5.80;;;;;;;;;;5047280;28;24454;-47
2022/09/14 02:24:30;;;;;;;6.50;6.00;;;;;;;;;;5044936;28;24474;-47
2022/09/14 02:26:56;;;;;;;6.20;5.80;;;;;;;;;;5033718;28;25059;-47
2022/09/14 02:29:22;;;;;;;6.15;5.65;;;;;;;;;;5042828;28;25036;-48
2022/09/14 02:31:50;;;;;;;6.13;5.63;;;;;;;;;;5047466;28;24411;-47
2022/09/14 02:34:18;;;;;;;6.60;6.10;;;;;;;;;;5044440;28;24968;-48
2022/09/14 02:36:57;;;;;;;6.25;5.75;;;;;;;;;;5036932;28;24447;-49
2022/09/14 02:39:48;;;;;;;6.50;6.00;;;;;;;;;;5032406;28;24428;-48
2022/09/14 02:42:17;;;;;;;5.65;5.22;;;;;;;;;;5031268;28;24475;-48
2022/09/14 02:45:00;;;;;;;6.43;5.93;;;;;;;;;;5042790;28;24482;-48
2022/09/14 02:47:29;;;;;;;5.80;5.30;;;;;;;;;;5037358;28;24435;-49
2022/09/14 02:50:19;;;;;;;6.47;5.90;;;;;;;;;;5028188;28;24428;-48
2022/09/14 02:52:47;;;;;;;6.07;5.47;;;;;;;;;;5045410;28;24426;-47
2022/09/14 02:55:16;;;;;;;6.40;5.80;;;;;;;;;;5045141;28;24570;-47
2022/09/14 02:57:59;;;;;;;6.60;6.00;;;;;;;;;;5041740;28;24477;-48
2022/09/14 03:00:26;;;;;;;6.15;5.65;;;;;;;;;;5046905;28;25180;-47
2022/09/14 03:02:51;;;;;;;6.23;5.83;;;;;;;;;;5045574;28;24509;-47
2022/09/14 03:05:16;;;;;;;6.87;6.37;;;;;;;;;;5046870;28;24423;-47
2022/09/14 03:07:41;;;;;;;6.30;5.80;;;;;;;;;;5041642;28;24415;-47
2022/09/14 03:10:07;;;;;;;6.50;6.00;;;;;;;;;;5034790;28;24450;-49
2022/09/14 03:12:32;;;;;;;6.70;6.10;;;;;;;;;;5044685;28;24582;-47
2022/09/14 03:14:57;;;;;;;7.00;6.40;;;;;;;;;;5044509;28;25000;-48
2022/09/14 03:17:22;;;;;;;6.55;6.00;;;;;;;;;;5031006;28;24415;-48
2022/09/14 03:19:47;;;;;;;6.13;5.53;;;;;;;;;;5037608;28;24514;-47
2022/09/14 03:22:12;;;;;;;6.20;5.60;;;;;;;;;;5042400;28;24407;-46
2022/09/14 03:24:37;;;;;;;6.40;5.95;;;;;;;;;;5041205;28;24499;-48
2022/09/14 03:27:03;;;;;;;6.20;5.70;;;;;;;;;;5043713;28;24514;-47
2022/09/14 03:29:28;;;;;;;6.30;5.70;;;;;;;;;;5040782;28;24462;-47
2022/09/14 03:31:53;;;;;;;6.77;6.10;;;;;;;;;;5026267;28;24779;-47
2022/09/14 03:34:18;;;;;;;6.70;6.10;;;;;;;;;;5055221;28;24403;-46
2022/09/14 03:36:43;;;;;;;6.70;6.18;;;;;;;;;;5046796;28;24754;-47
2022/09/14 03:39:08;;;;;;;6.50;6.00;;;;;;;;;;5057001;28;24461;-47
2022/09/14 03:41:34;;;;;;;6.50;6.00;;;;;;;;;;5045201;28;24406;-47
2022/09/14 03:43:59;;;;;;;6.30;5.80;;;;;;;;;;5055053;28;24422;-48
2022/09/14 03:46:24;;;;;;;7.33;6.73;;;;;;;;;;5048075;28;24395;-47
2022/09/14 03:48:50;;;;;;;6.63;6.03;;;;;;;;;;5050892;28;24430;-47
2022/09/14 03:51:15;;;;;;;6.53;6.00;;;;;;;;;;5052069;28;24407;-47
2022/09/14 03:53:41;;;;;;;6.50;5.90;;;;;;;;;;5058254;28;25017;-47
2022/09/14 03:56:07;;;;;;;6.60;6.07;;;;;;;;;;5046934;28;24392;-47
2022/09/14 03:58:32;;;;;;;6.40;5.90;;;;;;;;;;5045481;28;24445;-47
2022/09/14 04:01:08;;;;;;;6.53;6.03;;;;;;;;;;5047108;28;24970;-48
2022/09/14 04:03:33;;;;;;;6.70;6.10;;;;;;;;;;5037471;28;24442;-47
2022/09/14 04:05:59;;;;;;;7.07;6.47;;;;;;;;;;5027260;28;24427;-48
2022/09/14 04:08:24;;;;;;;6.33;5.83;;;;;;;;;;5042883;28;24650;-48
2022/09/14 04:10:49;;;;;;;6.53;6.03;;;;;;;;;;5041311;28;24462;-47
2022/09/14 04:13:14;;;;;;;6.30;5.90;;;;;;;;;;5042157;28;24430;-48
2022/09/14 04:15:39;;;;;;;6.60;6.00;;;;;;;;;;5042894;28;24454;-48
2022/09/14 04:18:04;;;;;;;6.55;6.00;;;;;;;;;;5041202;28;24522;-48
2022/09/14 04:20:29;;;;;;;7.35;6.75;;;;;;;;;;5035621;28;24447;-47
2022/09/14 04:22:55;;;;;;;7.05;6.45;;;;;;;;;;5037716;28;24462;-47
2022/09/14 04:25:22;;;;;;;6.95;6.38;;;;;;;;;;5039930;28;24443;-47
2022/09/14 04:27:47;;;;;;;7.78;7.13;;;;;;;;;;5042272;28;24473;-47
2022/09/14 04:30:12;;;;;;;6.90;6.30;;;;;;;;;;5040253;28;24431;-47
2022/09/14 04:32:37;;;;;;;6.63;6.17;;;;;;;;;;5030710;28;25263;-47
2022/09/14 04:35:03;;;;;;;7.30;6.70;;;;;;;;;;5029357;28;24454;-47
2022/09/14 04:37:29;;;;;;;6.90;6.30;;;;;;;;;;5041264;28;24427;-46
2022/09/14 04:39:54;;;;;;;6.82;6.30;;;;;;;;;;5036229;28;24422;-48
2022/09/14 04:42:20;;;;;;;7.50;6.90;;;;;;;;;;5028773;28;24436;-47
2022/09/14 04:44:45;;;;;;;7.43;6.82;;;;;;;;;;5040506;28;24536;-47
2022/09/14 04:47:10;;;;;;;6.70;6.20;;;;;;;;;;5041407;28;25060;-48
2022/09/14 04:49:35;;;;;;;6.77;6.27;;;;;;;;;;5031927;28;24412;-47
2022/09/14 04:52:00;;;;;;;6.70;6.20;;;;;;;;;;5038236;28;24416;-48
2022/09/14 04:54:26;;;;;;;6.50;6.00;;;;;;;;;;5040857;28;24439;-48
2022/09/14 04:56:51;;;;;;;6.90;6.30;;;;;;;;;;5038057;28;24419;-46
2022/09/14 04:59:16;;;;;;;7.33;6.73;;;;;;;;;;5037021;28;24416;-47
2022/09/14 05:01:42;;;;;;;8.68;6.82;;;;;;;;;;5031014;28;24623;-50
2022/09/14 05:04:08;;;;;;;7.50;6.90;;;;;;;;;;5037695;28;24435;-49
2022/09/14 05:06:35;;;;;;;8.25;6.65;;;;;;;;;;5028991;28;24430;-47
2022/09/14 05:09:00;;;;;;;7.43;6.72;;;;;;;;;;5024391;28;24999;-47
2022/09/14 05:11:30;;;;;;;7.38;6.78;;;;;;;;;;5028843;28;24447;-47
2022/09/14 05:13:56;;;;;;;7.90;7.20;;;;;;;;;;5026984;28;24516;-47
2022/09/14 05:16:35;;;;;;;7.03;6.53;;;;;;;;;;5039229;28;24496;-47
2022/09/14 05:19:01;;;;;;;7.50;6.90;;;;;;;;;;5028882;28;24438;-47
2022/09/14 05:21:26;;;;;;;7.10;6.40;;;;;;;;;;5029805;28;24427;-47
2022/09/14 05:23:53;;;;;;;7.05;6.45;;;;;;;;;;5034418;28;24443;-49
2022/09/14 05:26:19;;;;;;;7.65;6.95;;;;;;;;;;5028853;28;24477;-49
2022/09/14 05:28:48;;;;;;;6.87;6.37;;;;;;;;;;5026138;28;24504;-48
2022/09/14 05:31:14;;;;;;;8.15;7.25;;;;;;;;;;5035692;28;24420;-47
2022/09/14 05:33:39;;;;;;;7.90;7.20;;;;;;;;;;5036973;28;25027;-47
2022/09/14 05:36:06;;;;;;;7.20;6.60;;;;;;;;;;5036416;28;24459;-48
2022/09/14 05:38:32;;;;;;;7.33;6.63;;;;;;;;;;5037399;28;24423;-48
2022/09/14 05:40:57;;;;;;;7.43;6.72;;;;;;;;;;5029641;28;24485;-48
2022/09/14 05:43:23;;;;;;;8.30;7.23;;;;;;;;;;5033431;28;24430;-47
2022/09/14 05:45:48;;;;;;;8.17;7.57;;;;;;;;;;5035789;28;25074;-47
2022/09/14 05:48:13;;;;;;;7.30;6.70;;;;;;;;;;5026515;28;24434;-48
2022/09/14 05:50:38;;;;;;;6.70;6.20;;;;;;;;;;5026073;28;24380;-48
2022/09/14 05:53:04;;;;;;;6.80;6.20;;;;;;;;;;5032067;28;24912;-47
2022/09/14 05:55:29;;;;;;;7.35;6.55;;;;;;;;;;5046066;28;24430;-47
2022/09/14 05:57:54;;;;;;;6.80;6.30;;;;;;;;;;5041480;28;24427;-47
2022/09/14 06:00:20;;;;;;;6.30;5.90;;;;;;;;;;5035952;28;24427;-47
2022/09/14 06:02:46;;;;;;;7.40;6.72;;;;;;;;;;5044727;28;24419;-48
2022/09/14 06:05:11;;;;;;;7.15;6.65;;;;;;;;;;5044347;28;24534;-48
2022/09/14 06:07:36;;;;;;;7.10;6.50;;;;;;;;;;5036440;28;24539;-48
2022/09/14 06:10:02;;;;;;;6.28;5.88;;;;;;;;;;5036977;28;24419;-48
2022/09/14 06:12:27;;;;;;;7.07;6.47;;;;;;;;;;5030526;28;24451;-47
2022/09/14 06:14:52;;;;;;;6.90;6.40;;;;;;;;;;5047376;28;24936;-47
2022/09/14 06:17:17;;;;;;;7.28;6.57;;;;;;;;;;5044205;28;24526;-47
2022/09/14 06:19:42;;;;;;;7.00;6.47;;;;;;;;;;5033462;28;24714;-47
2022/09/14 06:22:07;;;;;;;6.70;6.20;;;;;;;;;;5034813;28;24592;-47
2022/09/14 06:24:34;;;;;;;6.10;5.60;;;;;;;;;;5037845;28;24434;-48
2022/09/14 06:26:59;;;;;;;6.72;6.15;;;;;;;;;;5029467;28;24412;-47
2022/09/14 06:29:24;;;;;;;6.73;6.23;;;;;;;;;;5031737;28;24435;-47
2022/09/14 06:31:50;;;;;;;7.13;6.53;;;;;;;;;;5028796;28;24519;-48
2022/09/14 06:34:15;;;;;;;7.10;6.50;;;;;;;;;;5030169;28;24427;-48
2022/09/14 06:36:40;;;;;;;7.30;6.70;;;;;;;;;;5034820;28;24512;-47
2022/09/14 06:39:05;;;;;;;7.38;6.63;;;;;;;;;;5029963;28;25200;-48
2022/09/14 06:41:31;;;;;;;8.33;7.53;;;;;;;;;;5039707;28;24426;-48
2022/09/14 06:43:57;;;;;;;7.37;6.77;;;;;;;;;;5030661;28;24415;-47
2022/09/14 06:46:24;;;;;;;7.70;7.00;;;;;;;;;;5039924;28;24855;-47
2022/09/14 06:48:51;;;;;;;7.28;6.57;;;;;;;;;;5033294;28;24530;-46
2022/09/14 06:51:18;;;;;;;7.32;6.38;;;;;;;;;;5044556;28;24797;-46
2022/09/14 06:53:43;;;;;;;8.13;7.43;;;;;;;;;;5047097;28;24406;-47
2022/09/14 06:56:08;;;;;;;7.70;7.00;;;;;;;;;;5047056;28;24759;-48
2022/09/14 06:58:34;;;;;;;7.90;7.20;;;;;;;;;;5046763;28;24533;-48
2022/09/14 07:01:06;;;;;;;8.15;7.40;;;;;;;;;;5047319;28;24406;-48
2022/09/14 07:03:33;;;;;;;8.80;7.90;;;;;;;;;;5047436;28;24454;-48
2022/09/14 07:06:02;;;;;;;7.90;7.30;;;;;;;;;;5047264;28;24486;-48
2022/09/14 07:08:28;;;;;;;8.50;7.70;;;;;;;;;;5045884;28;24805;-48
2022/09/14 07:10:57;;;;;;;7.88;7.18;;;;;;;;;;5047103;28;24410;-48
2022/09/14 07:13:22;;;;;;;8.25;7.55;;;;;;;;;;5046777;28;24960;-48
2022/09/14 07:15:48;;;;;;;7.80;7.20;;;;;;;;;;5047370;28;24676;-48
2022/09/14 07:18:14;;;;;;;8.50;7.70;;;;;;;;;;5045712;28;24454;-48
2022/09/14 07:20:39;;;;;;;8.53;7.63;;;;;;;;;;5046813;28;24482;-48
2022/09/14 07:23:04;;;;;;;8.30;7.50;;;;;;;;;;5046775;28;24476;-48
2022/09/14 07:25:29;;;;;;;8.95;8.20;;;;;;;;;;5047080;28;24935;-48
2022/09/14 07:27:54;;;;;;;8.60;7.80;;;;;;;;;;5045566;28;24502;-48
2022/09/14 07:30:20;;;;;;;8.07;7.27;;;;;;;;;;5045556;28;24907;-47
2022/09/14 07:32:45;;;;;;;8.35;7.55;;;;;;;;;;5046295;28;24468;-48
2022/09/14 07:35:10;;;;;;;8.07;7.38;;;;;;;;;;5046325;28;24847;-48
2022/09/14 07:37:35;;;;;;;8.10;7.40;;;;;;;;;;5045337;28;24427;-48
2022/09/14 07:40:00;;;;;;;8.50;7.70;;;;;;;;;;5046302;28;24395;-48
2022/09/14 07:42:25;;;;;;;8.00;7.30;;;;;;;;;;5046445;28;25049;-47
2022/09/14 07:44:51;;;;;;;8.50;7.70;;;;;;;;;;5046566;28;24412;-47
2022/09/14 07:47:16;;;;;;;9.10;8.20;;;;;;;;;;5043711;28;24560;-48
2022/09/14 07:49:41;;;;;;;8.80;8.10;;;;;;;;;;5026422;28;24395;-48
2022/09/14 07:52:07;;;;;;;9.67;8.77;;;;;;;;;;5026053;28;24404;-47
2022/09/14 07:54:33;;;;;;;8.40;7.70;;;;;;;;;;5026626;28;24792;-48
2022/09/14 07:56:58;;;;;;;9.32;8.52;;;;;;;;;;5044542;28;24423;-47
2022/09/14 07:59:23;;;;;;;9.18;8.43;;;;;;;;;;5046660;28;24749;-48
2022/09/14 08:01:48;;;;;;;9.10;8.30;;;;;;;;;;5046231;28;24391;-47
2022/09/14 08:04:14;;;;;;;8.90;8.20;;;;;;;;;;5046075;28;24955;-47
2022/09/14 08:06:39;;;;;;;9.80;9.00;;;;;;;;;;5036326;28;24934;-47
2022/09/14 08:09:06;;;;;;;9.50;8.70;;;;;;;;;;5046148;28;24980;-47
2022/09/14 08:11:33;;;;;;;10.27;9.40;;;;;;;;;;5046191;28;24913;-47
2022/09/14 08:13:59;;;;;;;10.20;9.20;;;;;;;;;;5044007;28;24917;-48
2022/09/14 08:16:25;;;;;;;9.63;8.73;;;;;;;;;;5044970;28;24427;-48
2022/09/14 08:18:54;;;;;;;9.65;8.85;;;;;;;;;;5046322;28;24995;-48
2022/09/14 08:21:19;;;;;;;9.60;8.80;;;;;;;;;;5045685;28;24410;-47
2022/09/14 08:23:44;;;;;;;10.13;9.23;;;;;;;;;;5045856;28;25146;-47
2022/09/14 08:26:12;;;;;;;10.53;9.53;;;;;;;;;;5046027;28;24499;-47
2022/09/14 08:28:37;;;;;;;9.60;8.80;;;;;;;;;;5045196;28;24421;-47
2022/09/14 08:31:10;;;;;;;10.30;9.40;;;;;;;;;;5045828;28;24395;-47
2022/09/14 08:33:36;;;;;;;9.95;9.15;;;;;;;;;;5045041;28;24481;-48
2022/09/14 08:36:02;;;;;;;10.80;9.90;;;;;;;;;;5045361;28;24441;-47
2022/09/14 08:38:27;;;;;;;10.32;9.38;;;;;;;;;;5046060;28;24383;-48
2022/09/14 08:40:52;;;;;;;10.47;9.57;;;;;;;;;;5046167;28;24922;-48
2022/09/14 08:43:20;;;;;;;10.90;9.93;;;;;;;;;;5045852;28;24402;-48
2022/09/14 08:45:47;;;;;;;11.55;10.55;;;;;;;;;;5045101;28;24539;-48
2022/09/14 08:48:25;;;;;;;11.10;10.20;;;;;;;;;;5036671;28;24438;-48
2022/09/14 08:50:52;;;;;;;10.65;9.75;;;;;;;;;;5037753;28;24467;-49
2022/09/14 08:53:18;;;;;;;10.85;9.85;;;;;;;;;;5027992;28;24450;-48
2022/09/14 08:55:44;;;;;;;10.93;10.10;;;;;;;;;;5030176;28;24388;-47
2022/09/14 08:58:19;;;;;;;11.10;10.10;;;;;;;;;;5031280;28;24503;-48
2022/09/14 09:00:48;;;;;;;10.98;9.98;;;;;;;;;;5029985;28;24442;-48
2022/09/14 09:03:23;;;;;;;11.95;10.95;;;;;;;;;;5029493;28;24490;-48
2022/09/14 09:05:48;;;;;;;10.73;9.70;;;;;;;;;;5046149;28;24438;-48
2022/09/14 09:08:34;;;;;;;10.37;9.47;;;;;;;;;;5049314;28;24399;-48
2022/09/14 09:11:00;;;;;;;11.45;10.38;;;;;;;;;;5049533;28;24376;-48
2022/09/14 09:13:28;;;;;;;11.10;10.10;;;;;;;;;;5049286;28;24959;-48
2022/09/14 09:15:55;;;;;;;10.25;9.35;;;;;;;;;;5035949;28;24427;-49
2022/09/14 09:18:50;;;;;;;11.65;10.65;;;;;;;;;;5034089;28;24423;-47
2022/09/14 09:21:17;;;;;;;11.07;10.17;;;;;;;;;;5033116;28;24531;-48
2022/09/14 09:23:42;;;;;;;11.07;10.07;;;;;;;;;;5029552;28;24428;-48
2022/09/14 09:26:08;;;;;;;10.60;9.70;;;;;;;;;;5029467;28;24431;-49
2022/09/14 09:28:33;;;;;;;11.87;10.67;;;;;;;;;;5030717;28;25029;-48
2022/09/14 09:31:04;;;;;;;11.67;10.73;;;;;;;;;;5029586;28;24392;-47
2022/09/14 09:33:29;;;;;;;12.10;11.00;;;;;;;;;;5029382;28;24686;-46
2022/09/14 09:35:55;;;;;;;12.73;11.63;;;;;;;;;;5028969;28;25242;-48
2022/09/14 09:38:23;;;;;;;11.93;10.93;;;;;;;;;;5033239;28;24451;-48
2022/09/14 09:41:06;;;;;;;11.80;10.80;;;;;;;;;;5048234;28;24935;-48
2022/09/14 09:43:31;;;;;;;12.48;11.38;;;;;;;;;;5049144;28;24695;-48
2022/09/14 09:45:58;;;;;;;11.90;10.90;;;;;;;;;;5049078;28;24782;-49
2022/09/14 09:48:26;;;;;;;11.70;10.80;;;;;;;;;;5047811;28;25091;-49
2022/09/14 09:50:51;;;;;;;12.77;11.68;;;;;;;;;;5028803;28;24427;-48
2022/09/14 09:53:19;;;;;;;12.30;11.20;;;;;;;;;;5029104;28;24392;-48
2022/09/14 09:55:47;;;;;;;12.68;11.65;;;;;;;;;;5029396;28;24480;-48
2022/09/14 09:58:19;;;;;;;12.07;11.07;;;;;;;;;;5028740;28;24941;-48
2022/09/14 10:00:53;;;;;;;14.80;13.50;;;;;;;;;;5042870;28;24961;-47
2022/09/14 10:03:25;;;;;;;12.68;11.68;;;;;;;;;;5048018;28;24453;-48
2022/09/14 10:05:58;;;;;;;13.30;12.20;;;;;;;;;;5048298;28;24503;-48
2022/09/14 10:08:23;;;;;;;13.75;12.48;;;;;;;;;;5048308;28;24483;-48
2022/09/14 10:10:48;;;;;;;13.75;12.55;;;;;;;;;;5047610;28;24579;-48
2022/09/14 10:13:21;;;;;;;12.15;10.95;;;;;;;;;;5048771;28;24788;-48
2022/09/14 10:15:48;;;;;;;13.70;12.60;;;;;;;;;;5048531;28;24410;-48
2022/09/14 10:18:13;;;;;;;14.05;12.85;;;;;;;;;;5047547;28;24518;-48
2022/09/14 10:20:43;;;;;;;14.00;12.80;;;;;;;;;;5048793;28;24811;-48
2022/09/14 10:23:14;;;;;;;12.95;11.90;;;;;;;;;;5047427;28;24415;-49
2022/09/14 10:25:39;;;;;;;14.23;12.95;;;;;;;;;;5048953;28;24411;-49
2022/09/14 10:28:17;;;;;;;13.07;11.98;;;;;;;;;;5046739;28;24940;-49
2022/09/14 10:30:48;;;;;;;13.20;12.00;;;;;;;;;;5034054;28;24478;-50
2022/09/14 10:33:14;;;;;;;13.65;12.55;;;;;;;;;;5028256;28;24431;-49
2022/09/14 10:35:46;;;;;;;13.98;12.88;;;;;;;;;;5028368;28;24419;-48
2022/09/14 10:38:17;;;;;;;13.10;12.00;;;;;;;;;;5028051;28;24495;-47
2022/09/14 10:40:44;;;;;;;12.60;11.60;;;;;;;;;;5039471;28;24434;-48
2022/09/14 10:43:13;;;;;;;13.52;12.32;;;;;;;;;;5047692;28;24537;-48
2022/09/14 10:45:40;;;;;;;13.70;12.60;;;;;;;;;;5048102;28;24774;-47
2022/09/14 10:48:11;;;;;;;12.75;11.55;;;;;;;;;;5047963;28;24998;-47
2022/09/14 10:50:55;;;;;;;12.47;11.43;;;;;;;;;;5047398;28;24584;-48
2022/09/14 10:53:44;;;;;;;11.40;10.50;;;;;;;;;;5047176;28;24890;-47
2022/09/14 10:56:09;;;;;;;13.10;12.00;;;;;;;;;;5047751;28;24958;-48
2022/09/14 10:58:53;;;;;;;14.00;12.90;;;;;;;;;;5047020;28;24932;-47
2022/09/14 11:01:26;;;;;;;12.95;11.88;;;;;;;;;;5047607;28;24404;-48
2022/09/14 11:03:57;;;;;;;12.75;11.65;;;;;;;;;;5047391;28;24427;-47
2022/09/14 11:06:34;;;;;;;13.40;12.30;;;;;;;;;;5047376;28;25023;-48
2022/09/14 11:09:01;;;;;;;13.40;12.30;;;;;;;;;;5045598;28;25027;-47
2022/09/14 11:11:44;;;;;;;13.57;12.38;;;;;;;;;;5047219;28;24399;-48
2022/09/14 11:14:09;;;;;;;14.45;13.10;;;;;;;;;;5045565;28;24426;-47
2022/09/14 11:16:49;;;;;;;13.27;12.18;;;;;;;;;;5046226;28;24423;-48
2022/09/14 11:19:29;;;;;;;13.95;12.75;;;;;;;;;;5047310;28;25011;-48
2022/09/14 11:21:57;;;;;;;13.80;12.50;;;;;;;;;;5047599;28;24418;-48
2022/09/14 11:24:24;;;;;;;14.60;13.30;;;;;;;;;;5045969;28;24518;-47
2022/09/14 11:26:57;;;;;;;14.63;13.32;;;;;;;;;;5047239;28;24794;-47
2022/09/14 11:29:33;;;;;;;14.23;13.02;;;;;;;;;;5046145;28;24510;-48
2022/09/14 11:32:06;;;;;;;15.00;13.60;;;;;;;;;;5047546;28;24533;-48
2022/09/14 11:34:31;;;;;;;14.90;13.40;;;;;;;;;;5046854;28;24404;-48
2022/09/14 11:36:58;;;;;;;15.60;14.40;;;;;;;;;;5047145;28;24399;-48
2022/09/14 11:39:28;;;;;;;15.10;13.70;;;;;;;;;;5039956;28;24466;-49
2022/09/14 11:42:02;;;;;;;14.93;13.63;;;;;;;;;;5027585;28;24416;-48
2022/09/14 11:44:33;;;;;;;15.77;14.40;;;;;;;;;;5026892;28;24557;-49
2022/09/14 11:47:07;;;;;;;17.30;15.80;;;;;;;;;;5027737;28;24449;-48
2022/09/14 11:49:33;;;;;;;15.80;14.40;;;;;;;;;;5030963;28;25012;-49
2022/09/14 11:52:06;;;;;;;15.77;14.32;;;;;;;;;;5047170;28;24433;-47
2022/09/14 11:54:31;;;;;;;15.60;14.30;;;;;;;;;;5046796;28;24973;-48
2022/09/14 11:56:59;;;;;;;16.70;15.20;;;;;;;;;;5046035;28;24422;-48
2022/09/14 11:59:33;;;;;;;16.02;14.52;;;;;;;;;;5046827;28;24490;-47
2022/09/14 12:02:18;;;;;;;15.63;14.32;;;;;;;;;;5044170;28;24596;-47
2022/09/14 12:05:02;;;;;;;15.48;14.07;;;;;;;;;;5044783;28;24489;-48
2022/09/14 12:07:44;;;;;;;17.88;16.38;;;;;;;;;;5046442;28;24396;-48
2022/09/14 12:10:12;;;;;;;16.90;15.20;;;;;;;;;;5046396;28;24793;-48
2022/09/14 12:12:38;;;;;;;16.92;15.52;;;;;;;;;;5046609;28;24502;-48
2022/09/14 12:15:10;;;;;;;16.87;15.37;;;;;;;;;;5037645;28;24552;-48
2022/09/14 12:17:35;;;;;;;14.88;13.57;;;;;;;;;;5040187;28;24965;-48
2022/09/14 12:20:21;;;;;;;15.40;14.07;;;;;;;;;;5044099;28;24462;-48
2022/09/14 12:22:47;;;;;;;14.55;13.35;;;;;;;;;;5048089;28;24446;-48
2022/09/14 12:25:21;;;;;;;15.57;14.18;;;;;;;;;;5046246;28;24518;-49
2022/09/14 12:27:47;;;;;;;15.90;14.50;;;;;;;;;;5048003;28;24394;-48
2022/09/14 12:30:32;;;;;;;15.85;14.55;;;;;;;;;;5050633;28;24490;-49
2022/09/14 12:32:57;;;;;;;17.75;16.25;;;;;;;;;;5039032;28;24507;-47
2022/09/14 12:35:37;;;;;;;17.50;16.10;;;;;;;;;;5029830;28;24515;-48
2022/09/14 12:38:21;;;;;;;15.80;14.40;;;;;;;;;;5030396;28;24399;-49
2022/09/14 12:40:46;;;;;;;16.38;14.98;;;;;;;;;;5037802;28;24423;-49
2022/09/14 12:43:30;;;;;;;16.60;15.20;;;;;;;;;;5050125;28;24399;-49
2022/09/14 12:46:00;;;;;;;17.77;16.27;;;;;;;;;;5050091;28;24801;-48
2022/09/14 12:48:43;;;;;;;16.98;15.57;;;;;;;;;;5040636;28;24477;-49
2022/09/14 12:51:10;;;;;;;16.20;14.90;;;;;;;;;;5030103;28;24392;-49
2022/09/14 12:53:35;;;;;;;16.93;15.43;;;;;;;;;;5029863;28;24412;-49
2022/09/14 12:56:03;;;;;;;15.13;13.93;;;;;;;;;;5029873;28;24442;-49
2022/09/14 12:58:28;;;;;;;16.30;14.95;;;;;;;;;;5034381;28;24423;-48
2022/09/14 13:01:15;;;;;;;16.20;14.80;;;;;;;;;;5049068;28;24411;-48
2022/09/14 13:03:44;;;;;;;19.88;18.17;;;;;;;;;;5049416;28;24410;-48
2022/09/14 13:06:11;;;;;;;15.07;13.77;;;;;;;;;;5050078;28;24391;-48
2022/09/14 13:08:37;;;;;;;15.50;14.30;;;;;;;;;;5048794;28;24546;-49
2022/09/14 13:11:02;;;;;;;15.63;14.33;;;;;;;;;;5049830;28;24494;-48
2022/09/14 13:13:29;;;;;;;14.95;13.65;;;;;;;;;;5049664;28;24402;-50
2022/09/14 13:15:56;;;;;;;15.88;14.48;;;;;;;;;;5049590;28;24415;-48
2022/09/14 13:18:21;;;;;;;15.57;14.27;;;;;;;;;;5040951;28;24423;-48
2022/09/14 13:20:53;;;;;;;14.98;13.73;;;;;;;;;;5042982;28;24408;-48
2022/09/14 13:23:25;;;;;;;16.00;14.68;;;;;;;;;;5047871;28;24410;-49
2022/09/14 13:25:50;;;;;;;14.25;13.15;;;;;;;;;;5029311;28;24945;-49
2022/09/14 13:28:17;;;;;;;15.00;13.80;;;;;;;;;;5029839;28;24407;-49
2022/09/14 13:30:51;;;;;;;14.97;13.67;;;;;;;;;;5029715;28;24392;-49
2022/09/14 13:33:17;;;;;;;14.75;13.60;;;;;;;;;;5029694;28;24441;-49
2022/09/14 13:35:49;;;;;;;15.40;14.10;;;;;;;;;;5029004;28;24440;-49
2022/09/14 13:38:16;;;;;;;14.27;13.18;;;;;;;;;;5031091;28;24894;-49
2022/09/14 13:40:41;;;;;;;15.68;14.48;;;;;;;;;;5036796;28;24561;-49
2022/09/14 13:43:07;;;;;;;13.93;12.83;;;;;;;;;;5034931;28;24431;-48
2022/09/14 13:45:32;;;;;;;15.48;14.18;;;;;;;;;;5028900;28;24579;-48
2022/09/14 13:47:58;;;;;;;14.67;13.47;;;;;;;;;;5029649;28;24530;-49
2022/09/14 13:50:26;;;;;;;14.23;13.13;;;;;;;;;;5029146;28;24672;-49
2022/09/14 13:52:51;;;;;;;14.95;13.75;;;;;;;;;;5029168;28;24492;-48
2022/09/14 13:55:17;;;;;;;14.47;13.37;;;;;;;;;;5029503;28;24459;-49
2022/09/14 13:58:12;;;;;;;17.05;15.65;;;;;;;;;;5029215;28;24445;-48
2022/09/14 14:00:56;;;;;;;15.20;14.00;;;;;;;;;;5027490;28;24434;-52
2022/09/14 14:03:26;;;;;;;15.30;14.00;;;;;;;;;;5043647;28;24988;-49
2022/09/14 14:05:51;;;;;;;18.00;16.50;;;;;;;;;;5038415;28;24823;-50
2022/09/14 14:08:25;;;;;;;15.20;14.00;;;;;;;;;;5036443;28;24411;-48
2022/09/14 14:10:50;;;;;;;15.50;14.30;;;;;;;;;;5033567;28;24524;-49
2022/09/14 14:13:23;;;;;;;14.85;13.65;;;;;;;;;;5040598;28;24504;-49
2022/09/14 14:15:49;;;;;;;14.80;13.60;;;;;;;;;;5043112;28;25016;-49
2022/09/14 14:18:31;;;;;;;14.23;13.13;;;;;;;;;;5034842;28;24562;-49
2022/09/14 14:21:03;;;;;;;14.27;13.07;;;;;;;;;;5033882;28;25042;-48
2022/09/14 14:23:28;;;;;;;14.48;13.38;;;;;;;;;;5036627;28;25087;-47
2022/09/14 14:26:04;;;;;;;14.60;13.50;;;;;;;;;;5045209;28;24423;-48
2022/09/14 14:28:31;;;;;;;13.15;12.10;;;;;;;;;;5030897;28;24416;-48
2022/09/14 14:30:57;;;;;;;14.48;13.38;;;;;;;;;;5025584;28;24395;-47
2022/09/14 14:33:22;;;;;;;16.15;14.75;;;;;;;;;;5039721;28;24742;-48
2022/09/14 14:35:50;;;;;;;14.25;13.15;;;;;;;;;;5041728;28;25246;-49
2022/09/14 14:38:15;;;;;;;15.20;14.00;;;;;;;;;;5041845;28;24431;-49
2022/09/14 14:40:41;;;;;;;13.93;12.73;;;;;;;;;;5029112;28;25334;-49